AAL706 KPHL-KRDU
Flight info
| Callsign | AAL706 |
|---|---|
| Flight time | 1h 4m |
| Altitude | 36000 |
| Route | OOD TEBEE HAYDO TRPOD TAQLE3 |
| Aircraft | B38M/M-SDE1FGHILORVWXY/HB1 |
Departure
| Time | 2026-05-04 00:18 |
|---|---|
| Airport | Philadelphia International Airport (KPHL) |
Arrival
| Time | 2026-05-04 01:22 |
|---|---|
| Airport | Raleigh-Durham International Airport (KRDU) |
| Time | Latitude | Longitude | Altitude | Speed | Heading |
|---|---|---|---|---|---|
| 2026-05-03 23:36 | 39.87434 | -75.24973 | 24 ft | 0 kts | 344° |
| 2026-05-04 00:04 | 39.87423 | -75.24969 | 20 ft | 4 kts | 348° |
| 2026-05-04 00:04 | 39.87398 | -75.24959 | 29 ft | 4 kts | 330° |
| 2026-05-04 00:04 | 39.87375 | -75.24942 | 27 ft | 4 kts | 331° |
| 2026-05-04 00:04 | 39.87351 | -75.24926 | 27 ft | 4 kts | 333° |
| 2026-05-04 00:05 | 39.87327 | -75.24910 | 29 ft | 4 kts | 337° |
| 2026-05-04 00:05 | 39.87302 | -75.24898 | 27 ft | 3 kts | 345° |
| 2026-05-04 00:05 | 39.87295 | -75.24896 | 28 ft | 0 kts | 346° |
| 2026-05-04 00:12 | 39.87301 | -75.24903 | 28 ft | 4 kts | 313° |
| 2026-05-04 00:12 | 39.87284 | -75.24942 | 26 ft | 7 kts | 214° |
| 2026-05-04 00:12 | 39.87229 | -75.24962 | 26 ft | 8 kts | 181° |
| 2026-05-04 00:13 | 39.87190 | -75.24906 | 26 ft | 12 kts | 92° |
| 2026-05-04 00:13 | 39.87212 | -75.24790 | 24 ft | 14 kts | 75° |
| 2026-05-04 00:13 | 39.87232 | -75.24674 | 27 ft | 13 kts | 76° |
| 2026-05-04 00:13 | 39.87257 | -75.24552 | 24 ft | 15 kts | 75° |
| 2026-05-04 00:14 | 39.87282 | -75.24426 | 24 ft | 14 kts | 75° |
| 2026-05-04 00:14 | 39.87307 | -75.24306 | 26 ft | 13 kts | 75° |
| 2026-05-04 00:14 | 39.87297 | -75.24196 | 27 ft | 13 kts | 137° |
| 2026-05-04 00:14 | 39.87219 | -75.24140 | 26 ft | 13 kts | 152° |
| 2026-05-04 00:15 | 39.87123 | -75.24090 | 25 ft | 16 kts | 163° |
| 2026-05-04 00:15 | 39.87038 | -75.24042 | 24 ft | 10 kts | 104° |
| 2026-05-04 00:15 | 39.87054 | -75.23923 | 24 ft | 19 kts | 77° |
| 2026-05-04 00:15 | 39.87091 | -75.23738 | 26 ft | 22 kts | 74° |
| 2026-05-04 00:16 | 39.87130 | -75.23546 | 26 ft | 20 kts | 75° |
| 2026-05-04 00:16 | 39.87048 | -75.23440 | 27 ft | 19 kts | 166° |
| 2026-05-04 00:16 | 39.86925 | -75.23405 | 26 ft | 14 kts | 185° |
| 2026-05-04 00:16 | 39.86893 | -75.23457 | 26 ft | 0 kts | 253° |
| 2026-05-04 00:17 | 39.86871 | -75.23571 | 27 ft | 44 kts | 257° |
| 2026-05-04 00:17 | 39.86713 | -75.24356 | 30 ft | 132 kts | 255° |
| 2026-05-04 00:17 | 39.86422 | -75.25790 | 205 ft | 192 kts | 255° |
| 2026-05-04 00:18 | 39.86067 | -75.27528 | 733 ft | 198 kts | 256° |
| 2026-05-04 00:18 | 39.85681 | -75.29326 | 1235 ft | 213 kts | 255° |
| 2026-05-04 00:18 | 39.85249 | -75.31218 | 1758 ft | 224 kts | 255° |
| 2026-05-04 00:18 | 39.84748 | -75.33153 | 2233 ft | 228 kts | 246° |
| 2026-05-04 00:19 | 39.83746 | -75.34784 | 2720 ft | 239 kts | 222° |
| 2026-05-04 00:19 | 39.82247 | -75.35761 | 3224 ft | 246 kts | 198° |
| 2026-05-04 00:19 | 39.80508 | -75.35877 | 3753 ft | 260 kts | 175° |
| 2026-05-04 00:19 | 39.78695 | -75.35410 | 4305 ft | 267 kts | 170° |
| 2026-05-04 00:20 | 39.76882 | -75.34810 | 4822 ft | 270 kts | 168° |
| 2026-05-04 00:20 | 39.75065 | -75.34179 | 5334 ft | 272 kts | 168° |
| 2026-05-04 00:20 | 39.73228 | -75.33542 | 5847 ft | 273 kts | 169° |
| 2026-05-04 00:20 | 39.71351 | -75.32901 | 6398 ft | 283 kts | 169° |
| 2026-05-04 00:21 | 39.69421 | -75.32250 | 6889 ft | 287 kts | 169° |
| 2026-05-04 00:21 | 39.67484 | -75.31598 | 7392 ft | 289 kts | 169° |
| 2026-05-04 00:21 | 39.65528 | -75.30943 | 7905 ft | 292 kts | 168° |
| 2026-05-04 00:21 | 39.63538 | -75.30363 | 8412 ft | 292 kts | 179° |
| 2026-05-04 00:22 | 39.61538 | -75.30577 | 8966 ft | 288 kts | 193° |
| 2026-05-04 00:22 | 39.59543 | -75.30985 | 9494 ft | 292 kts | 193° |
| 2026-05-04 00:22 | 39.57542 | -75.31380 | 10023 ft | 297 kts | 192° |
| 2026-05-04 00:22 | 39.55409 | -75.31787 | 10318 ft | 320 kts | 192° |
| 2026-05-04 00:23 | 39.53145 | -75.32209 | 10543 ft | 346 kts | 192° |
| 2026-05-04 00:23 | 39.50711 | -75.32653 | 11142 ft | 358 kts | 192° |
| 2026-05-04 00:23 | 39.48238 | -75.33098 | 12031 ft | 359 kts | 192° |
| 2026-05-04 00:23 | 39.45752 | -75.33547 | 13003 ft | 360 kts | 193° |
| 2026-05-04 00:24 | 39.43260 | -75.33999 | 13901 ft | 363 kts | 193° |
| 2026-05-04 00:24 | 39.40746 | -75.34457 | 14677 ft | 366 kts | 193° |
| 2026-05-04 00:24 | 39.38219 | -75.34917 | 15461 ft | 369 kts | 194° |
| 2026-05-04 00:24 | 39.35669 | -75.35382 | 16250 ft | 372 kts | 194° |
| 2026-05-04 00:25 | 39.33092 | -75.35851 | 17029 ft | 375 kts | 194° |
| 2026-05-04 00:25 | 39.30501 | -75.36321 | 17795 ft | 377 kts | 194° |
| 2026-05-04 00:25 | 39.27896 | -75.36794 | 18528 ft | 380 kts | 195° |
| 2026-05-04 00:25 | 39.25257 | -75.37274 | 19159 ft | 384 kts | 195° |
| 2026-05-04 00:26 | 39.23500 | -75.37593 | 19583 ft | 386 kts | 195° |
| 2026-05-04 00:26 | 39.20829 | -75.38077 | 20222 ft | 389 kts | 195° |
| 2026-05-04 00:26 | 39.18140 | -75.38560 | 20856 ft | 393 kts | 195° |
| 2026-05-04 00:26 | 39.15416 | -75.39046 | 21471 ft | 396 kts | 195° |
| 2026-05-04 00:27 | 39.12678 | -75.39533 | 22070 ft | 400 kts | 196° |
| 2026-05-04 00:27 | 39.09907 | -75.40025 | 22651 ft | 403 kts | 196° |
| 2026-05-04 00:27 | 39.07111 | -75.40522 | 23190 ft | 408 kts | 197° |
| 2026-05-04 00:27 | 39.04297 | -75.41023 | 23718 ft | 411 kts | 197° |
| 2026-05-04 00:28 | 39.01457 | -75.41525 | 24314 ft | 410 kts | 197° |
| 2026-05-04 00:28 | 38.98627 | -75.42022 | 24936 ft | 409 kts | 197° |
| 2026-05-04 00:28 | 38.95799 | -75.42521 | 25437 ft | 411 kts | 197° |
| 2026-05-04 00:28 | 38.92988 | -75.43021 | 25861 ft | 415 kts | 197° |
| 2026-05-04 00:29 | 38.90113 | -75.43532 | 26298 ft | 419 kts | 197° |
| 2026-05-04 00:29 | 38.87225 | -75.44044 | 26724 ft | 421 kts | 198° |
| 2026-05-04 00:29 | 38.84321 | -75.44556 | 27218 ft | 422 kts | 198° |
| 2026-05-04 00:29 | 38.81409 | -75.45069 | 27700 ft | 423 kts | 198° |
| 2026-05-04 00:30 | 38.78481 | -75.45585 | 28149 ft | 425 kts | 198° |
| 2026-05-04 00:30 | 38.75536 | -75.46105 | 28586 ft | 427 kts | 198° |
| 2026-05-04 00:30 | 38.72586 | -75.46625 | 29008 ft | 429 kts | 198° |
| 2026-05-04 00:30 | 38.69621 | -75.47146 | 29467 ft | 430 kts | 198° |
| 2026-05-04 00:31 | 38.66669 | -75.47662 | 30029 ft | 427 kts | 199° |
| 2026-05-04 00:31 | 38.63774 | -75.48163 | 30674 ft | 420 kts | 199° |
| 2026-05-04 00:31 | 38.60849 | -75.48671 | 31204 ft | 417 kts | 199° |
| 2026-05-04 00:31 | 38.57970 | -75.49178 | 31582 ft | 418 kts | 199° |
| 2026-05-04 00:32 | 38.55083 | -75.49688 | 31954 ft | 418 kts | 199° |
| 2026-05-04 00:32 | 38.52234 | -75.50189 | 32412 ft | 417 kts | 199° |
| 2026-05-04 00:32 | 38.49365 | -75.50691 | 32908 ft | 414 kts | 200° |
| 2026-05-04 00:32 | 38.46524 | -75.51188 | 33362 ft | 412 kts | 200° |
| 2026-05-04 00:33 | 38.43687 | -75.51685 | 33717 ft | 410 kts | 200° |
| 2026-05-04 00:33 | 38.38085 | -75.52662 | 34589 ft | 405 kts | 200° |
| 2026-05-04 00:33 | 38.35287 | -75.53155 | 34801 ft | 407 kts | 200° |
| 2026-05-04 00:34 | 38.32596 | -75.54020 | 35003 ft | 386 kts | 216° |
| 2026-05-04 00:34 | 38.30210 | -75.55502 | 35310 ft | 382 kts | 217° |
| 2026-05-04 00:34 | 38.27806 | -75.56970 | 35571 ft | 384 kts | 216° |
| 2026-05-04 00:34 | 38.25412 | -75.58405 | 35830 ft | 385 kts | 216° |
| 2026-05-04 00:35 | 38.22983 | -75.59846 | 36026 ft | 386 kts | 216° |
| 2026-05-04 00:35 | 38.18073 | -75.62746 | 36050 ft | 389 kts | 216° |
| 2026-05-04 00:35 | 38.15747 | -75.64402 | 36052 ft | 374 kts | 225° |
| 2026-05-04 00:36 | 38.13690 | -75.66387 | 36061 ft | 369 kts | 226° |
| 2026-05-04 00:36 | 38.09611 | -75.70361 | 36064 ft | 369 kts | 226° |
| 2026-05-04 00:37 | 38.05521 | -75.74317 | 36065 ft | 369 kts | 226° |
| 2026-05-04 00:37 | 38.01457 | -75.78226 | 36017 ft | 369 kts | 226° |
| 2026-05-04 00:38 | 37.97352 | -75.82165 | 35763 ft | 376 kts | 226° |
| 2026-05-04 00:38 | 37.95265 | -75.84167 | 35330 ft | 374 kts | 226° |
| 2026-05-04 00:38 | 37.93203 | -75.86134 | 34893 ft | 369 kts | 226° |
| 2026-05-04 00:38 | 37.91163 | -75.88077 | 34469 ft | 365 kts | 226° |
| 2026-05-04 00:39 | 37.89150 | -75.89997 | 34052 ft | 361 kts | 226° |
| 2026-05-04 00:39 | 37.87152 | -75.91901 | 33561 ft | 358 kts | 226° |
| 2026-05-04 00:39 | 37.85168 | -75.93793 | 33068 ft | 355 kts | 227° |
| 2026-05-04 00:39 | 37.83198 | -75.95671 | 32590 ft | 353 kts | 227° |
| 2026-05-04 00:40 | 37.81241 | -75.97536 | 32105 ft | 350 kts | 227° |
| 2026-05-04 00:40 | 37.79302 | -75.99383 | 31618 ft | 348 kts | 227° |
| 2026-05-04 00:40 | 37.77364 | -76.01227 | 31163 ft | 346 kts | 227° |
| 2026-05-04 00:40 | 37.75449 | -76.03049 | 30725 ft | 344 kts | 227° |
| 2026-05-04 00:41 | 37.73532 | -76.04871 | 30284 ft | 343 kts | 227° |
| 2026-05-04 00:41 | 37.71634 | -76.06673 | 29799 ft | 341 kts | 227° |
| 2026-05-04 00:41 | 37.69768 | -76.08444 | 29291 ft | 339 kts | 227° |
| 2026-05-04 00:41 | 37.67889 | -76.10226 | 28797 ft | 337 kts | 227° |
| 2026-05-04 00:42 | 37.66022 | -76.11996 | 28308 ft | 335 kts | 227° |
| 2026-05-04 00:42 | 37.64161 | -76.13759 | 27828 ft | 334 kts | 226° |
| 2026-05-04 00:42 | 37.62306 | -76.15514 | 27348 ft | 332 kts | 226° |
| 2026-05-04 00:42 | 37.60464 | -76.17257 | 26890 ft | 331 kts | 226° |
| 2026-05-04 00:43 | 37.58623 | -76.18999 | 26427 ft | 330 kts | 226° |
| 2026-05-04 00:43 | 37.56786 | -76.20734 | 25971 ft | 329 kts | 226° |
| 2026-05-04 00:43 | 37.54954 | -76.22464 | 25530 ft | 328 kts | 226° |
| 2026-05-04 00:43 | 37.53127 | -76.24189 | 25094 ft | 327 kts | 226° |
| 2026-05-04 00:44 | 37.51307 | -76.25905 | 24665 ft | 327 kts | 225° |
| 2026-05-04 00:44 | 37.49485 | -76.27623 | 24248 ft | 326 kts | 225° |
| 2026-05-04 00:44 | 37.47680 | -76.29321 | 24140 ft | 324 kts | 225° |
| 2026-05-04 00:44 | 37.45862 | -76.31036 | 24101 ft | 328 kts | 225° |
| 2026-05-04 00:45 | 37.44040 | -76.32749 | 24083 ft | 324 kts | 225° |
| 2026-05-04 00:45 | 37.42243 | -76.34436 | 24071 ft | 321 kts | 225° |
| 2026-05-04 00:45 | 37.40450 | -76.36121 | 24068 ft | 322 kts | 225° |
| 2026-05-04 00:45 | 37.38651 | -76.37813 | 24060 ft | 323 kts | 225° |
| 2026-05-04 00:46 | 37.36851 | -76.39503 | 24069 ft | 323 kts | 225° |
| 2026-05-04 00:46 | 37.35047 | -76.41196 | 24072 ft | 324 kts | 225° |
| 2026-05-04 00:46 | 37.33241 | -76.42890 | 24076 ft | 324 kts | 225° |
| 2026-05-04 00:46 | 37.31436 | -76.44581 | 24077 ft | 324 kts | 225° |
| 2026-05-04 00:47 | 37.29625 | -76.46276 | 24077 ft | 324 kts | 225° |
| 2026-05-04 00:47 | 37.27817 | -76.47966 | 24074 ft | 324 kts | 225° |
| 2026-05-04 00:47 | 37.26064 | -76.49670 | 24074 ft | 319 kts | 231° |
| 2026-05-04 00:47 | 37.24594 | -76.51739 | 24089 ft | 312 kts | 238° |
| 2026-05-04 00:48 | 37.23265 | -76.53838 | 24084 ft | 311 kts | 239° |
| 2026-05-04 00:48 | 37.21910 | -76.56008 | 24074 ft | 311 kts | 239° |
| 2026-05-04 00:48 | 37.20573 | -76.58142 | 24075 ft | 311 kts | 238° |
| 2026-05-04 00:48 | 37.19244 | -76.60247 | 24074 ft | 312 kts | 238° |
| 2026-05-04 00:49 | 37.17895 | -76.62372 | 24065 ft | 311 kts | 238° |
| 2026-05-04 00:49 | 37.16540 | -76.64496 | 23929 ft | 314 kts | 238° |
| 2026-05-04 00:49 | 37.15159 | -76.66657 | 23454 ft | 317 kts | 238° |
| 2026-05-04 00:49 | 37.13775 | -76.68816 | 22966 ft | 318 kts | 238° |
| 2026-05-04 00:50 | 37.12384 | -76.70979 | 22476 ft | 317 kts | 237° |
| 2026-05-04 00:50 | 37.10999 | -76.73130 | 22120 ft | 313 kts | 237° |
| 2026-05-04 00:50 | 37.09654 | -76.75211 | 22083 ft | 302 kts | 238° |
| 2026-05-04 00:50 | 37.08342 | -76.77245 | 22085 ft | 300 kts | 238° |
| 2026-05-04 00:51 | 37.07044 | -76.79264 | 22088 ft | 304 kts | 238° |
| 2026-05-04 00:51 | 37.05703 | -76.81349 | 22083 ft | 307 kts | 238° |
| 2026-05-04 00:51 | 37.04364 | -76.83425 | 22072 ft | 306 kts | 238° |
| 2026-05-04 00:51 | 37.03027 | -76.85495 | 22067 ft | 305 kts | 238° |
| 2026-05-04 00:52 | 37.01696 | -76.87556 | 22070 ft | 304 kts | 237° |
| 2026-05-04 00:52 | 37.00368 | -76.89609 | 22078 ft | 303 kts | 237° |
| 2026-05-04 00:52 | 36.99040 | -76.91661 | 21988 ft | 306 kts | 237° |
| 2026-05-04 00:52 | 36.97685 | -76.93756 | 21444 ft | 312 kts | 237° |
| 2026-05-04 00:53 | 36.96313 | -76.95870 | 20988 ft | 313 kts | 237° |
| 2026-05-04 00:53 | 36.94941 | -76.97977 | 20541 ft | 313 kts | 236° |
| 2026-05-04 00:53 | 36.93565 | -77.00090 | 20092 ft | 312 kts | 236° |
| 2026-05-04 00:53 | 36.92196 | -77.02192 | 19653 ft | 312 kts | 236° |
| 2026-05-04 00:54 | 36.90832 | -77.04286 | 19220 ft | 311 kts | 236° |
| 2026-05-04 00:54 | 36.89533 | -77.06281 | 18817 ft | 311 kts | 236° |
| 2026-05-04 00:54 | 36.88174 | -77.08368 | 18393 ft | 310 kts | 236° |
| 2026-05-04 00:54 | 36.86812 | -77.10456 | 17906 ft | 310 kts | 236° |
| 2026-05-04 00:55 | 36.85447 | -77.12550 | 17430 ft | 310 kts | 236° |
| 2026-05-04 00:55 | 36.84091 | -77.14628 | 17133 ft | 304 kts | 236° |
| 2026-05-04 00:55 | 36.82797 | -77.16607 | 17031 ft | 293 kts | 236° |
| 2026-05-04 00:55 | 36.81521 | -77.18557 | 17002 ft | 287 kts | 236° |
| 2026-05-04 00:56 | 36.80262 | -77.20483 | 17008 ft | 288 kts | 236° |
| 2026-05-04 00:56 | 36.78987 | -77.22435 | 17022 ft | 292 kts | 236° |
| 2026-05-04 00:56 | 36.77686 | -77.24395 | 17002 ft | 294 kts | 235° |
| 2026-05-04 00:56 | 36.76369 | -77.26356 | 16942 ft | 295 kts | 235° |
| 2026-05-04 00:57 | 36.75037 | -77.28337 | 16525 ft | 299 kts | 235° |
| 2026-05-04 00:57 | 36.73696 | -77.30327 | 16154 ft | 300 kts | 235° |
| 2026-05-04 00:57 | 36.72357 | -77.32315 | 15777 ft | 298 kts | 235° |
| 2026-05-04 00:57 | 36.71027 | -77.34287 | 15450 ft | 295 kts | 235° |
| 2026-05-04 00:58 | 36.69721 | -77.36224 | 15208 ft | 289 kts | 235° |
| 2026-05-04 00:58 | 36.68435 | -77.38130 | 14955 ft | 285 kts | 235° |
| 2026-05-04 00:58 | 36.67168 | -77.40011 | 14704 ft | 283 kts | 235° |
| 2026-05-04 00:58 | 36.65906 | -77.41883 | 14476 ft | 281 kts | 235° |
| 2026-05-04 00:59 | 36.64652 | -77.43744 | 14242 ft | 280 kts | 235° |
| 2026-05-04 00:59 | 36.63405 | -77.45594 | 13998 ft | 279 kts | 235° |
| 2026-05-04 00:59 | 36.62159 | -77.47441 | 13747 ft | 278 kts | 235° |
| 2026-05-04 00:59 | 36.60920 | -77.49278 | 13481 ft | 278 kts | 235° |
| 2026-05-04 01:00 | 36.59679 | -77.51116 | 13212 ft | 278 kts | 235° |
| 2026-05-04 01:00 | 36.58429 | -77.52966 | 12939 ft | 278 kts | 235° |
| 2026-05-04 01:00 | 36.57198 | -77.54788 | 12674 ft | 279 kts | 235° |
| 2026-05-04 01:00 | 36.55948 | -77.56635 | 12407 ft | 279 kts | 235° |
| 2026-05-04 01:01 | 36.54697 | -77.58484 | 12149 ft | 279 kts | 235° |
| 2026-05-04 01:01 | 36.53445 | -77.60332 | 11897 ft | 280 kts | 234° |
| 2026-05-04 01:01 | 36.52188 | -77.62187 | 11649 ft | 280 kts | 234° |
| 2026-05-04 01:01 | 36.50933 | -77.64038 | 11403 ft | 280 kts | 234° |
| 2026-05-04 01:02 | 36.49677 | -77.65889 | 11160 ft | 280 kts | 234° |
| 2026-05-04 01:02 | 36.48421 | -77.67740 | 10913 ft | 280 kts | 234° |
| 2026-05-04 01:02 | 36.47164 | -77.69590 | 10674 ft | 280 kts | 234° |
| 2026-05-04 01:02 | 36.45907 | -77.71441 | 10429 ft | 280 kts | 234° |
| 2026-05-04 01:03 | 36.44653 | -77.73284 | 10193 ft | 279 kts | 234° |
| 2026-05-04 01:03 | 36.43410 | -77.75110 | 10059 ft | 275 kts | 234° |
| 2026-05-04 01:03 | 36.42165 | -77.76939 | 10023 ft | 277 kts | 234° |
| 2026-05-04 01:03 | 36.40924 | -77.78762 | 10022 ft | 275 kts | 234° |
| 2026-05-04 01:04 | 36.39692 | -77.80569 | 10014 ft | 275 kts | 234° |
| 2026-05-04 01:04 | 36.38473 | -77.82359 | 10002 ft | 275 kts | 234° |
| 2026-05-04 01:04 | 36.37222 | -77.84193 | 9998 ft | 275 kts | 234° |
| 2026-05-04 01:04 | 36.35998 | -77.85987 | 9988 ft | 275 kts | 234° |
| 2026-05-04 01:05 | 36.34767 | -77.87790 | 9997 ft | 273 kts | 234° |
| 2026-05-04 01:05 | 36.33560 | -77.89554 | 9983 ft | 262 kts | 234° |
| 2026-05-04 01:05 | 36.32403 | -77.91241 | 9982 ft | 250 kts | 235° |
| 2026-05-04 01:05 | 36.31316 | -77.92825 | 10007 ft | 232 kts | 235° |
| 2026-05-04 01:06 | 36.30305 | -77.94301 | 9983 ft | 219 kts | 236° |
| 2026-05-04 01:06 | 36.29328 | -77.95733 | 9992 ft | 217 kts | 236° |
| 2026-05-04 01:06 | 36.28349 | -77.97172 | 9999 ft | 220 kts | 236° |
| 2026-05-04 01:06 | 36.27356 | -77.98628 | 10010 ft | 222 kts | 236° |
| 2026-05-04 01:07 | 36.26352 | -78.00095 | 10010 ft | 224 kts | 235° |
| 2026-05-04 01:07 | 36.25345 | -78.01562 | 10021 ft | 222 kts | 235° |
| 2026-05-04 01:07 | 36.24344 | -78.03020 | 9961 ft | 222 kts | 235° |
| 2026-05-04 01:07 | 36.23338 | -78.04490 | 9686 ft | 224 kts | 236° |
| 2026-05-04 01:08 | 36.22566 | -78.06117 | 9414 ft | 216 kts | 251° |
| 2026-05-04 01:08 | 36.21974 | -78.07813 | 9156 ft | 214 kts | 251° |
| 2026-05-04 01:08 | 36.21370 | -78.09483 | 8901 ft | 210 kts | 250° |
| 2026-05-04 01:08 | 36.20778 | -78.11124 | 8641 ft | 208 kts | 251° |
| 2026-05-04 01:09 | 36.20223 | -78.12773 | 8387 ft | 208 kts | 252° |
| 2026-05-04 01:09 | 36.19673 | -78.14435 | 8135 ft | 208 kts | 252° |
| 2026-05-04 01:09 | 36.19123 | -78.16091 | 7874 ft | 209 kts | 252° |
| 2026-05-04 01:09 | 36.18569 | -78.17755 | 7643 ft | 209 kts | 252° |
| 2026-05-04 01:10 | 36.18016 | -78.19414 | 7399 ft | 209 kts | 251° |
| 2026-05-04 01:10 | 36.17462 | -78.21071 | 7149 ft | 208 kts | 251° |
| 2026-05-04 01:10 | 36.16907 | -78.22726 | 6907 ft | 208 kts | 251° |
| 2026-05-04 01:10 | 36.16539 | -78.23819 | 6743 ft | 208 kts | 251° |
| 2026-05-04 01:11 | 36.15984 | -78.25469 | 6495 ft | 207 kts | 251° |
| 2026-05-04 01:11 | 36.15432 | -78.27111 | 6238 ft | 207 kts | 251° |
| 2026-05-04 01:11 | 36.14917 | -78.28758 | 6078 ft | 203 kts | 257° |
| 2026-05-04 01:11 | 36.14601 | -78.30456 | 6046 ft | 203 kts | 261° |
| 2026-05-04 01:12 | 36.14314 | -78.32164 | 6040 ft | 202 kts | 261° |
| 2026-05-04 01:12 | 36.14024 | -78.33865 | 6039 ft | 202 kts | 260° |
| 2026-05-04 01:12 | 36.13728 | -78.35569 | 6033 ft | 202 kts | 260° |
| 2026-05-04 01:12 | 36.13428 | -78.37266 | 6031 ft | 201 kts | 260° |
| 2026-05-04 01:13 | 36.13131 | -78.38925 | 6025 ft | 192 kts | 260° |
| 2026-05-04 01:13 | 36.12851 | -78.40486 | 6014 ft | 182 kts | 260° |
| 2026-05-04 01:13 | 36.12574 | -78.42029 | 5778 ft | 186 kts | 259° |
| 2026-05-04 01:13 | 36.12164 | -78.43536 | 5512 ft | 186 kts | 243° |
| 2026-05-04 01:14 | 36.11520 | -78.44909 | 5271 ft | 183 kts | 243° |
| 2026-05-04 01:14 | 36.10901 | -78.46276 | 5097 ft | 182 kts | 243° |
| 2026-05-04 01:14 | 36.10287 | -78.47647 | 5051 ft | 182 kts | 243° |
| 2026-05-04 01:14 | 36.09677 | -78.49015 | 5037 ft | 180 kts | 243° |
| 2026-05-04 01:15 | 36.09076 | -78.50358 | 5036 ft | 182 kts | 243° |
| 2026-05-04 01:15 | 36.08475 | -78.51731 | 5009 ft | 183 kts | 243° |
| 2026-05-04 01:15 | 36.07868 | -78.53137 | 4734 ft | 185 kts | 243° |
| 2026-05-04 01:15 | 36.07276 | -78.54525 | 4464 ft | 180 kts | 243° |
| 2026-05-04 01:16 | 36.06699 | -78.55892 | 4203 ft | 179 kts | 243° |
| 2026-05-04 01:16 | 36.05967 | -78.57148 | 4077 ft | 182 kts | 229° |
| 2026-05-04 01:16 | 36.05102 | -78.58282 | 4027 ft | 177 kts | 227° |
| 2026-05-04 01:16 | 36.04261 | -78.59351 | 4022 ft | 171 kts | 227° |
| 2026-05-04 01:17 | 36.03430 | -78.60391 | 4019 ft | 169 kts | 226° |
| 2026-05-04 01:17 | 36.02625 | -78.61389 | 4000 ft | 157 kts | 226° |
| 2026-05-04 01:17 | 36.01865 | -78.62331 | 3869 ft | 156 kts | 226° |
| 2026-05-04 01:17 | 36.01107 | -78.63270 | 3673 ft | 153 kts | 226° |
| 2026-05-04 01:18 | 36.00360 | -78.64195 | 3479 ft | 151 kts | 226° |
| 2026-05-04 01:18 | 35.99624 | -78.65107 | 3280 ft | 149 kts | 226° |
| 2026-05-04 01:18 | 35.98892 | -78.66013 | 3077 ft | 149 kts | 225° |
| 2026-05-04 01:18 | 35.98156 | -78.66926 | 2873 ft | 150 kts | 225° |
| 2026-05-04 01:19 | 35.97418 | -78.67840 | 2673 ft | 150 kts | 225° |
| 2026-05-04 01:19 | 35.96681 | -78.68753 | 2471 ft | 149 kts | 225° |
| 2026-05-04 01:19 | 35.95968 | -78.69637 | 2259 ft | 145 kts | 225° |
| 2026-05-04 01:19 | 35.95268 | -78.70503 | 2072 ft | 143 kts | 225° |
| 2026-05-04 01:20 | 35.94564 | -78.71376 | 1879 ft | 144 kts | 225° |
| 2026-05-04 01:20 | 35.93857 | -78.72253 | 1692 ft | 144 kts | 225° |
| 2026-05-04 01:20 | 35.93151 | -78.73129 | 1481 ft | 144 kts | 224° |
| 2026-05-04 01:20 | 35.92446 | -78.74007 | 1291 ft | 145 kts | 225° |
| 2026-05-04 01:21 | 35.91741 | -78.74906 | 1087 ft | 145 kts | 225° |
| 2026-05-04 01:21 | 35.91027 | -78.75797 | 907 ft | 147 kts | 224° |
| 2026-05-04 01:21 | 35.90309 | -78.76696 | 716 ft | 146 kts | 223° |
| 2026-05-04 01:21 | 35.89579 | -78.77558 | 527 ft | 145 kts | 224° |
| 2026-05-04 01:22 | 35.88887 | -78.78408 | 420 ft | 124 kts | 225° |
| 2026-05-04 01:22 | 35.88443 | -78.78962 | 419 ft | 42 kts | 225° |
| 2026-05-04 01:22 | 35.88279 | -78.79063 | 420 ft | 5 kts | 151° |
| 2026-05-04 01:22 | 35.88261 | -78.79050 | 422 ft | 0 kts | 154° |
| 2026-05-04 01:23 | 35.88254 | -78.79047 | 425 ft | 2 kts | 162° |
| 2026-05-04 01:23 | 35.88215 | -78.79063 | 422 ft | 11 kts | 218° |
| 2026-05-04 01:23 | 35.88137 | -78.79153 | 426 ft | 17 kts | 224° |
| 2026-05-04 01:23 | 35.88076 | -78.79160 | 426 ft | 10 kts | 180° |
| 2026-05-04 01:24 | 35.87999 | -78.79220 | 428 ft | 16 kts | 225° |
| 2026-05-04 01:24 | 35.87923 | -78.79315 | 425 ft | 15 kts | 226° |
| 2026-05-04 01:24 | 35.87852 | -78.79400 | 425 ft | 13 kts | 221° |
| 2026-05-04 01:24 | 35.87793 | -78.79394 | 420 ft | 6 kts | 133° |
| 2026-05-04 01:25 | 35.87783 | -78.79381 | 419 ft | 0 kts | 130° |